Time;durP1;ratioP1;P1;durP2;ratioP2;P2;SDS_P1;SDS_P2;PMS_P1;PMS_P2;Temp;Humidity;BMP_temperature;BMP_pressure;BME280_temperature;BME280_humidity;BME280_pressure;Samples;Min_cycle;Max_cycle;Signal;HPM_P1;HPM_P2
2022/06/17 00:02:25;;;;;;;;;;;20.30;68.80;;;;;;5056705;28;1337;-74
2022/06/17 00:04:50;;;;;;;;;;;20.30;68.80;;;;;;5074843;28;1352;-74
2022/06/17 00:07:16;;;;;;;;;;;20.30;68.80;;;;;;5073907;28;1318;-74
2022/06/17 00:09:41;;;;;;;;;;;20.30;68.80;;;;;;5056952;28;1182;-74
2022/06/17 00:12:07;;;;;;;;;;;20.20;68.80;;;;;;5056624;28;1911;-75
2022/06/17 00:15:11;;;;;;;;;;;20.30;68.90;;;;;;5040129;28;1192;-76
2022/06/17 00:17:18;;;;;;;;;;;20.30;68.80;;;;;;5059279;28;1306;-76
2022/06/17 00:19:44;;;;;;;;;;;20.20;68.80;;;;;;5050551;28;1119;-76
2022/06/17 00:22:09;;;;;;;;;;;20.20;68.80;;;;;;5054798;28;1194;-76
2022/06/17 00:24:34;;;;;;;;;;;20.30;68.80;;;;;;5066274;28;1162;-76
2022/06/17 00:27:00;;;;;;;;;;;20.30;68.80;;;;;;5055676;28;1343;-76
2022/06/17 00:29:26;;;;;;;;;;;20.30;68.90;;;;;;5054811;28;1316;-76
2022/06/17 00:31:52;;;;;;;;;;;20.20;68.80;;;;;;5019637;28;1446;-76
2022/06/17 00:34:17;;;;;;;;;;;20.20;68.80;;;;;;5019598;28;1970;-76
2022/06/17 00:36:43;;;;;;;;;;;20.30;68.90;;;;;;5036652;28;1625;-75
2022/06/17 00:39:13;;;;;;;;;;;20.30;68.90;;;;;;5036530;28;1349;-75
2022/06/17 00:41:38;;;;;;;;;;;20.30;68.80;;;;;;5035963;28;1084;-75
2022/06/17 00:44:12;;;;;;;;;;;20.20;68.80;;;;;;5036212;28;1068;-75
2022/06/17 00:46:48;;;;;;;;;;;20.30;68.90;;;;;;5060275;22;3490;-73
2022/06/17 00:49:30;;;;;;;;;;;20.30;68.90;;;;;;5043418;28;1443;-73
2022/06/17 00:51:58;;;;;;;;;;;20.30;68.80;;;;;;5055414;28;1302;-73
2022/06/17 00:54:25;;;;;;;;;;;20.30;68.90;;;;;;5068803;28;1242;-73
2022/06/17 00:56:50;;;;;;;;;;;20.30;68.90;;;;;;5052303;28;1292;-73
2022/06/17 00:59:16;;;;;;;;;;;20.30;68.90;;;;;;5052066;28;1142;-73
2022/06/17 01:01:50;;;;;;;;;;;20.30;68.90;;;;;;5052028;28;1115;-73
2022/06/17 01:04:25;;;;;;;;;;;20.30;68.90;;;;;;5035404;28;1173;-73
2022/06/17 01:06:52;;;;;;;;;;;20.20;68.80;;;;;;5035262;28;1314;-73
2022/06/17 01:12:08;;;;;;;;;;;20.30;68.90;;;;;;5052034;28;1906;-75
2022/06/17 01:14:34;;;;;;;;;;;20.20;68.80;;;;;;5053332;28;1087;-75
2022/06/17 01:16:59;;;;;;;;;;;20.30;68.90;;;;;;5051124;28;1257;-75
2022/06/17 01:19:25;;;;;;;;;;;20.20;68.90;;;;;;5019641;28;1304;-75
2022/06/17 01:21:51;;;;;;;;;;;20.30;68.90;;;;;;5048578;28;1092;-75
2022/06/17 01:24:17;;;;;;;;;;;20.20;68.80;;;;;;5051616;28;1139;-75
2022/06/17 01:26:42;;;;;;;;;;;20.30;68.90;;;;;;5046098;28;1406;-75
2022/06/17 01:29:12;;;;;;;;;;;20.30;68.90;;;;;;5023988;28;1306;-74
2022/06/17 01:31:37;;;;;;;;;;;20.30;68.90;;;;;;5034727;28;1318;-74
2022/06/17 01:34:03;;;;;;;;;;;20.30;68.90;;;;;;5051732;28;1902;-74
2022/06/17 01:36:28;;;;;;;;;;;20.20;68.80;;;;;;5021528;28;1760;-74
2022/06/17 01:38:57;;;;;;;;;;;20.30;68.90;;;;;;5051520;28;1059;-74
2022/06/17 01:41:24;;;;;;;;;;;20.20;68.90;;;;;;5034791;28;1102;-74
2022/06/17 01:44:04;;;;;;;;;;;20.30;68.90;;;;;;5043585;28;1055;-74
2022/06/17 01:46:31;;;;;;;;;;;20.20;68.80;;;;;;5049377;28;1351;-72
2022/06/17 01:49:11;;;;;;;;;;;20.30;68.90;;;;;;5035028;28;1135;-72
2022/06/17 01:51:37;;;;;;;;;;;20.30;68.90;;;;;;5051276;28;1308;-72
2022/06/17 01:54:05;;;;;;;;;;;20.30;69.00;;;;;;5051422;28;1910;-72
2022/06/17 01:56:34;;;;;;;;;;;20.30;68.90;;;;;;5051421;28;1287;-72
2022/06/17 01:59:17;;;;;;;;;;;20.30;69.00;;;;;;5051512;28;1079;-72
2022/06/17 02:01:44;;;;;;;;;;;20.30;69.00;;;;;;5040844;28;1383;-73
2022/06/17 02:04:15;;;;;;;;;;;20.30;69.20;;;;;;5048499;28;1412;-73
2022/06/17 02:06:40;;;;;;;;;;;20.20;68.90;;;;;;5051214;28;1350;-73
2022/06/17 02:09:06;;;;;;;;;;;20.20;68.90;;;;;;5048359;28;1281;-73
2022/06/17 02:11:31;;;;;;;;;;;20.30;69.00;;;;;;5042171;28;1420;-73
2022/06/17 02:13:57;;;;;;;;;;;20.20;68.90;;;;;;5051334;28;1910;-73
2022/06/17 02:16:23;;;;;;;;;;;20.20;68.90;;;;;;5052283;28;1395;-73
2022/06/17 02:18:48;;;;;;;;;;;20.30;69.00;;;;;;5041066;28;1205;-74
2022/06/17 02:21:22;;;;;;;;;;;20.30;69.00;;;;;;5034548;28;938;-73
2022/06/17 02:23:48;;;;;;;;;;;20.30;69.00;;;;;;5034784;28;1458;-73
2022/06/17 02:26:13;;;;;;;;;;;20.20;68.90;;;;;;5025997;28;2151;-73
2022/06/17 02:28:39;;;;;;;;;;;20.30;69.00;;;;;;5045479;28;1256;-72
2022/06/17 02:31:04;;;;;;;;;;;20.30;69.00;;;;;;5041670;28;1890;-71
2022/06/17 02:33:30;;;;;;;;;;;20.30;69.00;;;;;;5050420;28;1906;-71
2022/06/17 02:36:02;;;;;;;;;;;20.30;69.00;;;;;;5028114;28;1330;-71
2022/06/17 02:38:28;;;;;;;;;;;20.30;69.00;;;;;;5046642;28;1370;-71
2022/06/17 02:40:57;;;;;;;;;;;20.30;69.00;;;;;;5042097;28;1219;-73
2022/06/17 02:43:22;;;;;;;;;;;20.30;69.00;;;;;;5045330;28;1308;-71
2022/06/17 02:45:52;;;;;;;;;;;20.30;69.00;;;;;;5048775;28;1236;-73
2022/06/17 02:48:21;;;;;;;;;;;20.30;69.00;;;;;;5042859;28;1201;-72
2022/06/17 02:50:47;;;;;;;;;;;20.20;68.90;;;;;;5054332;28;1864;-72
2022/06/17 02:53:12;;;;;;;;;;;20.30;69.00;;;;;;5047994;28;1926;-72
2022/06/17 02:55:39;;;;;;;;;;;20.20;68.90;;;;;;5048737;28;1511;-72
2022/06/17 02:58:22;;;;;;;;;;;20.30;69.00;;;;;;5057274;28;1286;-73
2022/06/17 03:00:48;;;;;;;;;;;20.30;69.00;;;;;;5055794;28;1123;-72
2022/06/17 03:03:14;;;;;;;;;;;20.30;69.00;;;;;;5054358;28;981;-72
2022/06/17 03:05:41;;;;;;;;;;;20.20;68.90;;;;;;5037869;28;1602;-72
2022/06/17 03:08:25;;;;;;;;;;;20.20;68.90;;;;;;5045464;28;1240;-73
2022/06/17 03:10:55;;;;;;;;;;;20.20;69.00;;;;;;5032408;28;1395;-73
2022/06/17 03:13:25;;;;;;;;;;;20.20;68.90;;;;;;5029845;28;1902;-72
2022/06/17 03:15:51;;;;;;;;;;;20.20;68.90;;;;;;5037689;28;1536;-72
2022/06/17 03:18:16;;;;;;;;;;;20.20;68.90;;;;;;5051586;28;1197;-73
2022/06/17 03:20:42;;;;;;;;;;;20.30;69.00;;;;;;5054420;28;1314;-73
2022/06/17 03:23:10;;;;;;;;;;;20.20;68.90;;;;;;5055156;28;1117;-73
2022/06/17 03:25:42;;;;;;;;;;;20.30;69.00;;;;;;5054148;28;1171;-74
2022/06/17 03:28:09;;;;;;;;;;;20.20;68.90;;;;;;5023851;28;1390;-73
2022/06/17 03:30:38;;;;;;;;;;;20.20;68.90;;;;;;5037098;28;1175;-73
2022/06/17 03:33:10;;;;;;;;;;;20.30;69.00;;;;;;5052634;28;1965;-72
2022/06/17 03:35:35;;;;;;;;;;;20.30;69.00;;;;;;5043615;28;1345;-74
2022/06/17 03:38:02;;;;;;;;;;;20.20;68.90;;;;;;5039742;28;1349;-73
2022/06/17 03:40:32;;;;;;;;;;;20.20;68.90;;;;;;5035712;28;1153;-72
2022/06/17 03:43:04;;;;;;;;;;;20.20;68.90;;;;;;5052413;28;1166;-72
2022/06/17 03:45:50;;;;;;;;;;;20.30;69.00;;;;;;5053961;28;1450;-73
2022/06/17 03:48:29;;;;;;;;;;;20.30;69.00;;;;;;5033829;28;1741;-71
2022/06/17 03:50:54;;;;;;;;;;;20.30;69.00;;;;;;5031196;28;1850;-70
2022/06/17 03:53:38;;;;;;;;;;;20.30;69.00;;;;;;5049369;28;1966;-71
2022/06/17 03:56:06;;;;;;;;;;;20.30;69.00;;;;;;5035370;28;1469;-70
2022/06/17 03:58:31;;;;;;;;;;;20.30;69.00;;;;;;5053040;28;1296;-71
2022/06/17 04:01:01;;;;;;;;;;;20.30;69.00;;;;;;5033163;28;1321;-71
2022/06/17 04:03:28;;;;;;;;;;;20.30;69.00;;;;;;5022941;28;1339;-71
2022/06/17 04:05:57;;;;;;;;;;;20.20;69.00;;;;;;5034387;28;1199;-71
2022/06/17 04:08:22;;;;;;;;;;;20.20;69.00;;;;;;5034278;28;1731;-70
2022/06/17 04:10:48;;;;;;;;;;;20.20;69.00;;;;;;5053102;28;1394;-71
2022/06/17 04:13:14;;;;;;;;;;;20.30;69.00;;;;;;5054417;28;1957;-71
2022/06/17 04:15:58;;;;;;;;;;;20.30;69.00;;;;;;5053002;28;1182;-70
2022/06/17 04:18:23;;;;;;;;;;;20.30;69.00;;;;;;5050663;28;1275;-72
2022/06/17 04:20:48;;;;;;;;;;;20.30;69.00;;;;;;5053871;28;1441;-73
2022/06/17 04:23:24;;;;;;;;;;;20.30;69.10;;;;;;5040894;28;1091;-73
2022/06/17 04:25:59;;;;;;;;;;;20.30;69.00;;;;;;5036309;28;1076;-72
2022/06/17 04:28:25;;;;;;;;;;;20.30;69.00;;;;;;5050531;28;1364;-70
2022/06/17 04:31:00;;;;;;;;;;;20.30;69.00;;;;;;5052448;28;1306;-71
2022/06/17 04:33:27;;;;;;;;;;;20.30;69.10;;;;;;5053932;28;1906;-73
2022/06/17 04:35:53;;;;;;;;;;;20.20;69.00;;;;;;5041631;28;1610;-73
2022/06/17 04:38:19;;;;;;;;;;;20.30;69.10;;;;;;5050151;28;1268;-71
2022/06/17 04:40:48;;;;;;;;;;;20.20;69.00;;;;;;5053860;28;1320;-69
2022/06/17 04:43:23;;;;;;;;;;;20.30;69.10;;;;;;5052854;28;1337;-68
2022/06/17 04:45:52;;;;;;;;;;;20.30;69.10;;;;;;5052905;28;1075;-70
2022/06/17 04:48:18;;;;;;;;;;;20.30;69.10;;;;;;5016813;28;1386;-67
2022/06/17 04:50:43;;;;;;;;;;;20.30;69.10;;;;;;5046028;28;1427;-71
2022/06/17 04:53:09;;;;;;;;;;;20.30;69.10;;;;;;5053010;28;1910;-71
2022/06/17 04:55:35;;;;;;;;;;;20.30;69.10;;;;;;5052431;28;1271;-67
2022/06/17 04:58:01;;;;;;;;;;;20.20;69.00;;;;;;5052255;28;1272;-67
2022/06/17 05:00:26;;;;;;;;;;;20.30;69.10;;;;;;5045576;28;1750;-71
2022/06/17 05:02:52;;;;;;;;;;;20.20;69.10;;;;;;5052895;28;1377;-74
2022/06/17 05:05:22;;;;;;;;;;;20.30;69.10;;;;;;5050982;28;1809;-72
2022/06/17 05:07:48;;;;;;;;;;;20.30;69.10;;;;;;5029525;28;1377;-73
2022/06/17 05:10:18;;;;;;;;;;;20.30;69.10;;;;;;5041992;28;1217;-74
2022/06/17 05:13:03;;;;;;;;;;;20.30;69.10;;;;;;5034587;28;1964;-72
2022/06/17 05:15:29;;;;;;;;;;;20.30;69.10;;;;;;5034691;28;1284;-72
2022/06/17 05:17:56;;;;;;;;;;;20.20;69.00;;;;;;5051878;28;1258;-72
2022/06/17 05:20:22;;;;;;;;;;;20.30;69.10;;;;;;5047617;28;1310;-73
2022/06/17 05:22:49;;;;;;;;;;;20.20;69.00;;;;;;5051764;28;1293;-72
2022/06/17 05:25:18;;;;;;;;;;;20.30;69.10;;;;;;5031767;28;1228;-72
2022/06/17 05:27:44;;;;;;;;;;;20.30;69.10;;;;;;5025738;28;1265;-70
2022/06/17 05:30:11;;;;;;;;;;;20.20;69.00;;;;;;5028832;28;1394;-71
2022/06/17 05:32:36;;;;;;;;;;;20.30;69.10;;;;;;5022438;28;1971;-71
2022/06/17 05:35:02;;;;;;;;;;;20.20;69.10;;;;;;5045058;28;1345;-70
2022/06/17 05:37:27;;;;;;;;;;;20.30;69.10;;;;;;5043303;28;1352;-71
2022/06/17 05:39:54;;;;;;;;;;;20.30;69.10;;;;;;5051701;28;1442;-69
2022/06/17 05:42:20;;;;;;;;;;;20.20;69.00;;;;;;5034862;28;1252;-71
2022/06/17 05:44:46;;;;;;;;;;;20.30;69.90;;;;;;5052526;28;1307;-70
2022/06/17 05:47:11;;;;;;;;;;;20.20;69.10;;;;;;5052609;28;1283;-72
2022/06/17 05:49:38;;;;;;;;;;;20.20;69.10;;;;;;5052491;28;1352;-72
2022/06/17 05:52:04;;;;;;;;;;;20.20;69.00;;;;;;5051388;28;1378;-69
2022/06/17 05:54:30;;;;;;;;;;;20.30;69.10;;;;;;5034518;28;1898;-69
2022/06/17 05:56:55;;;;;;;;;;;20.20;69.10;;;;;;5052585;28;1264;-72
2022/06/17 05:59:20;;;;;;;;;;;20.30;69.10;;;;;;5052376;28;1263;-70
2022/06/17 06:01:46;;;;;;;;;;;20.30;69.10;;;;;;5052302;28;1129;-70
2022/06/17 06:04:11;;;;;;;;;;;20.30;69.20;;;;;;5052449;28;1316;-68
2022/06/17 06:06:37;;;;;;;;;;;20.30;69.20;;;;;;5055991;28;1361;-70
2022/06/17 06:09:02;;;;;;;;;;;20.30;69.20;;;;;;5038529;28;1396;-71
2022/06/17 06:11:28;;;;;;;;;;;20.30;69.10;;;;;;5054845;28;1278;-71
2022/06/17 06:13:53;;;;;;;;;;;20.20;69.10;;;;;;5037933;28;1903;-71
2022/06/17 06:16:19;;;;;;;;;;;20.20;69.10;;;;;;5055279;28;1387;-71
2022/06/17 06:18:47;;;;;;;;;;;20.30;69.20;;;;;;5035669;28;1336;-71
2022/06/17 06:21:12;;;;;;;;;;;20.30;69.10;;;;;;5046308;28;1262;-71
2022/06/17 06:23:38;;;;;;;;;;;20.20;69.10;;;;;;5056578;28;1364;-70
2022/06/17 06:26:04;;;;;;;;;;;20.20;69.10;;;;;;5056152;28;1312;-70
2022/06/17 06:28:29;;;;;;;;;;;20.20;69.80;;;;;;5051526;28;1285;-70
2022/06/17 06:31:00;;;;;;;;;;;20.20;69.20;;;;;;5034744;28;2152;-70
2022/06/17 06:33:25;;;;;;;;;;;20.30;69.20;;;;;;5034333;28;1964;-70
2022/06/17 06:35:51;;;;;;;;;;;20.30;69.20;;;;;;5036210;28;1381;-71
2022/06/17 06:38:16;;;;;;;;;;;20.20;69.10;;;;;;5052194;28;1332;-71
2022/06/17 06:40:42;;;;;;;;;;;20.20;69.10;;;;;;5038035;28;1276;-72
2022/06/17 06:43:11;;;;;;;;;;;20.30;69.20;;;;;;5055936;28;972;-71
2022/06/17 06:45:36;;;;;;;;;;;20.20;69.20;;;;;;5054838;28;1219;-69
2022/06/17 06:48:03;;;;;;;;;;;20.30;69.20;;;;;;5058065;22;3755;-71
2022/06/17 06:50:30;;;;;;;;;;;20.30;69.20;;;;;;5037844;28;973;-72
2022/06/17 06:52:55;;;;;;;;;;;20.20;69.10;;;;;;5071176;28;1969;-73
2022/06/17 06:55:21;;;;;;;;;;;20.20;69.10;;;;;;5037908;28;1303;-70
2022/06/17 06:57:48;;;;;;;;;;;20.30;69.20;;;;;;5038043;28;1279;-71
2022/06/17 07:00:15;;;;;;;;;;;20.20;69.20;;;;;;5055235;28;1283;-71
2022/06/17 07:02:40;;;;;;;;;;;20.20;69.20;;;;;;5037982;28;1378;-71
2022/06/17 07:05:06;;;;;;;;;;;20.20;69.20;;;;;;5037690;28;1331;-71
2022/06/17 07:07:31;;;;;;;;;;;20.20;69.20;;;;;;5037585;28;1341;-71
2022/06/17 07:09:57;;;;;;;;;;;20.20;69.20;;;;;;5055137;28;1313;-70
2022/06/17 07:12:22;;;;;;;;;;;20.20;69.20;;;;;;5037551;28;1961;-71
2022/06/17 07:14:47;;;;;;;;;;;20.20;69.20;;;;;;5037552;28;1353;-70
2022/06/17 07:17:14;;;;;;;;;;;20.20;69.20;;;;;;5055243;28;1263;-71
2022/06/17 07:19:39;;;;;;;;;;;20.20;69.20;;;;;;5049822;28;1158;-70
2022/06/17 07:22:05;;;;;;;;;;;20.20;69.20;;;;;;5035257;28;1131;-71
2022/06/17 07:24:30;;;;;;;;;;;20.20;69.20;;;;;;5045866;28;1108;-71
2022/06/17 07:26:55;;;;;;;;;;;20.20;69.90;;;;;;5054376;28;1298;-71
2022/06/17 07:29:21;;;;;;;;;;;20.20;69.20;;;;;;5035130;28;1259;-70
2022/06/17 07:31:46;;;;;;;;;;;20.20;69.20;;;;;;5035078;28;1254;-70
2022/06/17 07:34:12;;;;;;;;;;;20.20;69.20;;;;;;5035565;28;1910;-71
2022/06/17 07:42:06;;;;;;;;;;;20.20;69.20;;;;;;5054922;28;1129;-71
2022/06/17 07:44:32;;;;;;;;;;;20.20;69.20;;;;;;5054767;28;1068;-70
2022/06/17 07:46:57;;;;;;;;;;;20.20;69.20;;;;;;5054949;28;1297;-70
2022/06/17 07:49:22;;;;;;;;;;;20.20;69.20;;;;;;5054621;28;1308;-70
2022/06/17 07:51:48;;;;;;;;;;;20.20;69.20;;;;;;5054339;28;1266;-70
2022/06/17 07:54:14;;;;;;;;;;;20.20;69.30;;;;;;5054684;28;1914;-71
2022/06/17 07:56:39;;;;;;;;;;;20.20;69.20;;;;;;5036806;28;1295;-70
2022/06/17 07:59:06;;;;;;;;;;;20.20;69.20;;;;;;5054574;28;1281;-70
2022/06/17 08:01:31;;;;;;;;;;;20.20;69.20;;;;;;5036489;28;1032;-70
2022/06/17 08:03:56;;;;;;;;;;;20.20;69.20;;;;;;5054544;28;1075;-70
2022/06/17 08:06:22;;;;;;;;;;;20.20;69.20;;;;;;5054463;28;1263;-70
2022/06/17 08:08:48;;;;;;;;;;;20.20;69.20;;;;;;5036547;28;1414;-71
2022/06/17 08:11:13;;;;;;;;;;;20.20;69.30;;;;;;5054262;28;1192;-70
2022/06/17 08:13:39;;;;;;;;;;;20.20;69.20;;;;;;5036440;28;1957;-70
2022/06/17 08:16:08;;;;;;;;;;;20.20;69.30;;;;;;5036568;28;1087;-70
2022/06/17 08:18:34;;;;;;;;;;;20.20;69.20;;;;;;5056004;28;1271;-70
2022/06/17 08:20:59;;;;;;;;;;;20.20;69.20;;;;;;5016176;28;1352;-70
2022/06/17 08:23:25;;;;;;;;;;;20.20;69.30;;;;;;5035757;28;1178;-71
2022/06/17 08:25:50;;;;;;;;;;;20.20;69.20;;;;;;5045965;28;1259;-69
2022/06/17 08:28:16;;;;;;;;;;;20.20;69.20;;;;;;5022737;28;1299;-70
2022/06/17 08:30:43;;;;;;;;;;;20.20;69.30;;;;;;5016231;28;1080;-70
2022/06/17 08:33:08;;;;;;;;;;;20.20;69.20;;;;;;5034018;28;1914;-70
2022/06/17 08:35:35;;;;;;;;;;;20.20;69.30;;;;;;5033949;28;1641;-69
2022/06/17 08:38:01;;;;;;;;;;;20.20;69.30;;;;;;5016182;28;1323;-70
2022/06/17 08:40:37;;;;;;;;;;;20.20;69.30;;;;;;5016300;28;1342;-71
2022/06/17 08:43:21;;;;;;;;;;;20.20;69.30;;;;;;5016176;28;1677;-71
2022/06/17 08:45:49;;;;;;;;;;;20.20;69.30;;;;;;5045373;28;1064;-68
2022/06/17 08:48:23;;;;;;;;;;;20.20;69.30;;;;;;5048746;28;1357;-71
2022/06/17 08:50:56;;;;;;;;;;;20.20;69.30;;;;;;5028541;28;1170;-71
2022/06/17 08:53:31;;;;;;;;;;;20.20;69.30;;;;;;5023088;28;1973;-71
2022/06/17 08:56:06;;;;;;;;;;;20.20;69.30;;;;;;5053627;28;1308;-71
2022/06/17 08:58:36;;;;;;;;;;;20.20;69.30;;;;;;5015789;28;1950;-70
2022/06/17 09:01:14;;;;;;;;;;;20.20;69.30;;;;;;5027117;28;1904;-70
2022/06/17 09:03:45;;;;;;;;;;;20.20;69.30;;;;;;5043888;28;1854;-70
2022/06/17 09:06:25;;;;;;;;;;;20.20;69.30;;;;;;5049548;28;2041;-70
2022/06/17 09:09:09;;;;;;;;;;;20.20;69.30;;;;;;5024524;28;1585;-70
2022/06/17 09:11:38;;;;;;;;;;;20.20;69.30;;;;;;5036885;28;1965;-71
2022/06/17 09:14:23;;;;;;;;;;;20.20;69.30;;;;;;5041126;28;1902;-70
2022/06/17 09:16:56;;;;;;;;;;;20.20;69.30;;;;;;5029095;28;1238;-70
2022/06/17 09:19:23;;;;;;;;;;;20.20;69.30;;;;;;5022708;28;1196;-70
2022/06/17 09:21:49;;;;;;;;;;;20.20;69.30;;;;;;5015613;28;1284;-70
2022/06/17 09:24:21;;;;;;;;;;;20.20;69.30;;;;;;5023909;28;1208;-70
2022/06/17 09:26:48;;;;;;;;;;;20.20;69.30;;;;;;5036087;28;1131;-71
2022/06/17 09:29:15;;;;;;;;;;;20.20;69.30;;;;;;5004948;28;1264;-70
2022/06/17 09:31:45;;;;;;;;;;;20.20;69.30;;;;;;5018985;28;1056;-70
2022/06/17 09:34:21;;;;;;;;;;;20.20;69.30;;;;;;5015200;28;1906;-70
2022/06/17 09:36:57;;;;;;;;;;;20.20;69.30;;;;;;5015785;28;1567;-70
2022/06/17 09:39:23;;;;;;;;;;;20.20;69.40;;;;;;5014506;28;1264;-70
2022/06/17 09:41:53;;;;;;;;;;;20.20;69.30;;;;;;5032536;28;1142;-70
2022/06/17 09:44:45;;;;;;;;;;;20.20;69.30;;;;;;5032172;28;1073;-70
2022/06/17 09:47:15;;;;;;;;;;;20.20;69.30;;;;;;5040596;28;1276;-70
2022/06/17 09:49:41;;;;;;;;;;;20.20;69.30;;;;;;5034891;28;1288;-70
2022/06/17 09:52:09;;;;;;;;;;;20.20;69.30;;;;;;5018709;28;1667;-70
2022/06/17 09:54:40;;;;;;;;;;;20.20;69.30;;;;;;5034649;28;1906;-70
2022/06/17 09:57:05;;;;;;;;;;;20.20;69.30;;;;;;5034848;28;1208;-70
2022/06/17 09:59:42;;;;;;;;;;;20.20;69.30;;;;;;5034651;28;1430;-70
2022/06/17 10:02:21;;;;;;;;;;;20.20;69.30;;;;;;5018304;28;1187;-70
2022/06/17 10:04:46;;;;;;;;;;;20.20;69.40;;;;;;5052578;28;1267;-70
2022/06/17 10:07:16;;;;;;;;;;;20.20;69.30;;;;;;5034526;28;1363;-71
2022/06/17 10:09:42;;;;;;;;;;;20.20;69.30;;;;;;5052389;28;1134;-70
2022/06/17 10:12:10;;;;;;;;;;;20.20;69.30;;;;;;5052379;28;1326;-70
2022/06/17 10:14:55;;;;;;;;;;;20.20;69.30;;;;;;5034805;28;1898;-70
2022/06/17 10:20:16;;;;;;;;;;;20.20;69.30;;;;;;5041634;28;1146;-70
2022/06/17 10:22:46;;;;;;;;;;;20.20;69.30;;;;;;5015023;28;1112;-70
2022/06/17 10:25:18;;;;;;;;;;;20.20;69.30;;;;;;5031052;28;1346;-70
2022/06/17 10:28:02;;;;;;;;;;;20.20;69.40;;;;;;5045352;28;1284;-70
2022/06/17 10:30:35;;;;;;;;;;;20.20;69.30;;;;;;5014402;28;1365;-70
2022/06/17 10:33:01;;;;;;;;;;;20.20;69.30;;;;;;5014963;28;1910;-70
2022/06/17 10:35:27;;;;;;;;;;;20.20;69.30;;;;;;5015109;28;1726;-70
2022/06/17 10:37:53;;;;;;;;;;;20.20;69.30;;;;;;5015083;28;1359;-70
2022/06/17 10:40:18;;;;;;;;;;;20.20;69.40;;;;;;5014418;28;1361;-70
2022/06/17 10:42:46;;;;;;;;;;;20.20;69.40;;;;;;5014694;28;1068;-70
2022/06/17 10:45:13;;;;;;;;;;;20.20;69.40;;;;;;5015123;28;1059;-70
2022/06/17 10:47:44;;;;;;;;;;;20.20;69.40;;;;;;5014504;28;1282;-70
2022/06/17 10:50:12;;;;;;;;;;;20.20;69.40;;;;;;5014405;28;1147;-70
2022/06/17 10:52:39;;;;;;;;;;;20.20;69.40;;;;;;5035449;28;1975;-70
2022/06/17 10:55:05;;;;;;;;;;;20.20;69.30;;;;;;5018130;28;1119;-70
2022/06/17 10:57:31;;;;;;;;;;;20.20;69.40;;;;;;5036014;28;1275;-70
2022/06/17 10:59:56;;;;;;;;;;;20.20;69.40;;;;;;5017925;28;1123;-70
2022/06/17 11:02:23;;;;;;;;;;;20.20;69.40;;;;;;5035863;28;1175;-70
2022/06/17 11:04:54;;;;;;;;;;;20.20;69.40;;;;;;5035708;28;1139;-70
2022/06/17 11:07:30;;;;;;;;;;;20.20;69.40;;;;;;5018560;28;1287;-70
2022/06/17 11:09:56;;;;;;;;;;;20.20;69.40;;;;;;5017673;28;1154;-70
2022/06/17 11:12:31;;;;;;;;;;;20.20;69.40;;;;;;5017893;28;1902;-70
2022/06/17 11:15:03;;;;;;;;;;;20.20;69.40;;;;;;5017924;28;1135;-70
2022/06/17 11:17:35;;;;;;;;;;;20.20;69.40;;;;;;5018681;28;1291;-70
2022/06/17 11:20:15;;;;;;;;;;;20.20;69.40;;;;;;5042521;28;1288;-70
2022/06/17 11:22:41;;;;;;;;;;;20.20;69.40;;;;;;5041950;28;1742;-70
2022/06/17 11:25:07;;;;;;;;;;;20.20;69.40;;;;;;5031270;28;1296;-70
2022/06/17 11:27:35;;;;;;;;;;;20.20;69.40;;;;;;5030117;28;1769;-70
2022/06/17 11:30:30;;;;;;;;;;;20.20;69.40;;;;;;5033379;28;1316;-71
2022/06/17 11:32:57;;;;;;;;;;;20.20;69.40;;;;;;5022119;28;2036;-71
2022/06/17 11:35:38;;;;;;;;;;;20.20;69.40;;;;;;5041858;28;1934;-70
2022/06/17 11:38:05;;;;;;;;;;;20.20;69.40;;;;;;5034407;28;1948;-71
2022/06/17 11:40:32;;;;;;;;;;;20.20;69.40;;;;;;5033001;28;1419;-71
2022/06/17 11:43:03;;;;;;;;;;;20.20;69.40;;;;;;5029957;28;1162;-71
2022/06/17 11:45:31;;;;;;;;;;;20.20;69.40;;;;;;5026976;28;1310;-71
2022/06/17 11:48:04;;;;;;;;;;;20.20;69.40;;;;;;5033760;28;1361;-71
2022/06/17 11:50:30;;;;;;;;;;;20.20;69.40;;;;;;5017103;28;1289;-71
2022/06/17 11:53:00;;;;;;;;;;;20.20;69.40;;;;;;5034684;28;1963;-71
2022/06/17 11:55:26;;;;;;;;;;;20.20;69.40;;;;;;5034649;28;1143;-70
2022/06/17 11:57:51;;;;;;;;;;;20.20;69.40;;;;;;5017397;28;1382;-71
2022/06/17 12:00:23;;;;;;;;;;;20.20;69.40;;;;;;5016850;28;1273;-71
2022/06/17 12:02:58;;;;;;;;;;;20.20;69.40;;;;;;5033830;28;1388;-70
2022/06/17 12:05:31;;;;;;;;;;;20.20;69.40;;;;;;5016866;28;1279;-71
2022/06/17 12:08:00;;;;;;;;;;;20.20;69.40;;;;;;5016793;28;1343;-70
2022/06/17 12:10:34;;;;;;;;;;;20.20;69.40;;;;;;5016547;28;1430;-71
2022/06/17 12:13:07;;;;;;;;;;;20.20;69.40;;;;;;5044054;28;1957;-71
2022/06/17 12:15:37;;;;;;;;;;;20.20;69.40;;;;;;5032641;28;1349;-71
2022/06/17 12:18:03;;;;;;;;;;;20.20;69.40;;;;;;5018245;28;1593;-70
2022/06/17 12:20:28;;;;;;;;;;;20.20;69.40;;;;;;5038020;28;1041;-71
2022/06/17 12:22:58;;;;;;;;;;;20.20;69.40;;;;;;5043318;28;1244;-70
2022/06/17 12:25:35;;;;;;;;;;;20.20;69.40;;;;;;5034365;28;1379;-70
2022/06/17 12:28:02;;;;;;;;;;;20.20;69.40;;;;;;5026921;28;1301;-71
2022/06/17 12:30:48;;;;;;;;;;;20.20;69.40;;;;;;5015845;28;1341;-71
2022/06/17 12:33:21;;;;;;;;;;;20.20;69.40;;;;;;5049036;28;1906;-71
2022/06/17 12:35:50;;;;;;;;;;;20.20;69.40;;;;;;5026960;28;1599;-70
2022/06/17 12:38:22;;;;;;;;;;;20.20;69.40;;;;;;5016706;28;1318;-71
2022/06/17 12:40:54;;;;;;;;;;;20.20;69.40;;;;;;5053759;28;1279;-71
2022/06/17 12:43:30;;;;;;;;;;;20.20;69.40;;;;;;5017691;28;1227;-70
2022/06/17 12:45:57;;;;;;;;;;;20.20;69.40;;;;;;5016246;28;1263;-70
2022/06/17 12:48:26;;;;;;;;;;;20.20;69.40;;;;;;5070462;23;1799;-73
2022/06/17 12:53:41;;;;;;;;;;;20.20;69.40;;;;;;5099587;28;1914;-71
2022/06/17 12:56:19;;;;;;;;;;;20.20;69.40;;;;;;5096192;28;1216;-72
2022/06/17 12:58:51;;;;;;;;;;;20.20;69.40;;;;;;5105135;28;1335;-72
2022/06/17 13:01:21;;;;;;;;;;;20.30;69.50;;;;;;5076086;28;1367;-72
2022/06/17 13:03:49;;;;;;;;;;;20.20;69.40;;;;;;5076253;28;1122;-72
2022/06/17 13:06:26;;;;;;;;;;;20.20;69.40;;;;;;5075794;28;1361;-74
2022/06/17 13:08:54;;;;;;;;;;;20.20;69.40;;;;;;5075744;28;1320;-73
2022/06/17 13:11:25;;;;;;;;;;;20.20;69.40;;;;;;5094103;28;1062;-75
2022/06/17 13:13:51;;;;;;;;;;;20.20;69.40;;;;;;5059125;28;1910;-73
2022/06/17 13:16:22;;;;;;;;;;;20.20;69.40;;;;;;5076401;28;1339;-73
2022/06/17 13:18:50;;;;;;;;;;;20.20;69.50;;;;;;5071502;28;1513;-74
2022/06/17 13:21:20;;;;;;;;;;;20.20;69.50;;;;;;5091814;28;1254;-73
2022/06/17 13:23:49;;;;;;;;;;;20.30;69.50;;;;;;5059065;28;1308;-73
2022/06/17 13:26:21;;;;;;;;;;;20.20;69.40;;;;;;5092027;28;1261;-73
2022/06/17 13:28:58;;;;;;;;;;;20.30;69.50;;;;;;5072282;28;1792;-73
2022/06/17 13:31:34;;;;;;;;;;;20.20;69.50;;;;;;5072729;28;1167;-72
2022/06/17 13:34:01;;;;;;;;;;;20.20;69.50;;;;;;5058963;28;1973;-72
2022/06/17 13:36:30;;;;;;;;;;;20.30;69.50;;;;;;5075414;28;1352;-72
2022/06/17 13:38:58;;;;;;;;;;;20.20;69.50;;;;;;5058724;28;1213;-73
2022/06/17 13:41:34;;;;;;;;;;;20.20;69.50;;;;;;5074961;28;1386;-73
2022/06/17 13:44:04;;;;;;;;;;;20.30;69.50;;;;;;5074874;28;1165;-74
2022/06/17 13:46:55;;;;;;;;;;;20.20;70.20;;;;;;5075118;28;1360;-74
2022/06/17 13:49:34;;;;;;;;;;;20.30;69.50;;;;;;5086763;28;1310;-74
2022/06/17 13:52:05;;;;;;;;;;;20.30;69.50;;;;;;5075020;28;1271;-74
2022/06/17 13:54:34;;;;;;;;;;;20.30;69.60;;;;;;5093350;28;1981;-74
2022/06/17 13:57:06;;;;;;;;;;;20.20;69.50;;;;;;5058655;28;1293;-74
2022/06/17 13:59:31;;;;;;;;;;;20.20;69.50;;;;;;5058248;28;1338;-73
2022/06/17 14:02:26;;;;;;;;;;;20.20;69.50;;;;;;5093189;28;1134;-74
2022/06/17 14:04:59;;;;;;;;;;;20.30;69.60;;;;;;5061910;28;1184;-73
2022/06/17 14:07:44;;;;;;;;;;;20.30;69.60;;;;;;5093638;28;1123;-75
2022/06/17 14:10:28;;;;;;;;;;;20.20;69.50;;;;;;5061432;28;1359;-74
2022/06/17 14:12:54;;;;;;;;;;;20.20;69.50;;;;;;5093402;28;1947;-74
2022/06/17 14:15:23;;;;;;;;;;;20.30;69.60;;;;;;5075268;28;1412;-74
2022/06/17 14:17:52;;;;;;;;;;;20.20;69.50;;;;;;5075461;28;1360;-74
2022/06/17 14:20:24;;;;;;;;;;;20.20;69.50;;;;;;5089005;28;1206;-74
2022/06/17 14:23:08;;;;;;;;;;;20.30;69.60;;;;;;5093377;28;1078;-74
2022/06/17 14:25:44;;;;;;;;;;;20.20;69.50;;;;;;5068973;28;1390;-75
2022/06/17 14:28:37;;;;;;;;;;;20.30;69.60;;;;;;5093412;28;1216;-74
2022/06/17 14:31:18;;;;;;;;;;;20.30;69.60;;;;;;5055623;28;1189;-75
2022/06/17 14:34:03;;;;;;;;;;;20.20;69.50;;;;;;5078407;28;1894;-75
2022/06/17 14:36:49;;;;;;;;;;;20.30;69.60;;;;;;5075379;28;1645;-75
2022/06/17 14:39:33;;;;;;;;;;;20.20;69.50;;;;;;5065881;28;1285;-75
2022/06/17 14:42:06;;;;;;;;;;;20.20;69.50;;;;;;5065353;28;1150;-75
2022/06/17 14:44:31;;;;;;;;;;;20.20;69.50;;;;;;5064477;28;1071;-74
2022/06/17 14:47:15;;;;;;;;;;;20.20;69.50;;;;;;5087969;28;1167;-74
2022/06/17 14:49:42;;;;;;;;;;;20.30;69.60;;;;;;5093292;28;1275;-74
2022/06/17 14:52:21;;;;;;;;;;;20.20;69.50;;;;;;5078141;28;1284;-74
2022/06/17 14:54:59;;;;;;;;;;;20.20;69.50;;;;;;5077640;28;1902;-74
2022/06/17 14:57:25;;;;;;;;;;;20.30;69.60;;;;;;5096140;28;1405;-74
2022/06/17 14:59:50;;;;;;;;;;;20.20;69.50;;;;;;5077747;28;1323;-74